createdAt,value
2022-11-04T00:01:58.167Z,1.40
2022-11-04T00:04:25.985Z,1.10
2022-11-04T00:06:52.756Z,1.20
2022-11-04T00:09:20.636Z,1.05
2022-11-04T00:12:05.865Z,1.05
2022-11-04T00:14:32.969Z,1.00
2022-11-04T00:17:18.288Z,1.25
2022-11-04T00:20:03.380Z,1.30
2022-11-04T00:22:48.448Z,1.50
2022-11-04T00:25:33.201Z,1.10
2022-11-04T00:28:22.356Z,1.10
2022-11-04T00:30:48.589Z,1.17
2022-11-04T00:33:27.130Z,1.23
2022-11-04T00:35:54.530Z,1.17
2022-11-04T00:38:20.943Z,1.23
2022-11-04T00:40:47.163Z,1.45
2022-11-04T00:43:13.371Z,1.52
2022-11-04T00:45:42.556Z,1.60
2022-11-04T00:48:09.202Z,1.90
2022-11-04T00:50:36.005Z,2.08
2022-11-04T00:53:02.575Z,1.90
2022-11-04T00:55:29.119Z,1.80
2022-11-04T00:57:55.996Z,2.50
2022-11-04T01:00:22.185Z,2.10
2022-11-04T01:02:48.446Z,2.22
2022-11-04T01:05:14.677Z,1.58
2022-11-04T01:07:43.659Z,1.88
2022-11-04T01:10:10.373Z,1.70
2022-11-04T01:12:36.582Z,1.75
2022-11-04T01:15:02.901Z,1.45
2022-11-04T01:17:29.183Z,1.55
2022-11-04T01:19:55.392Z,1.42
2022-11-04T01:22:21.668Z,1.73
2022-11-04T01:24:47.842Z,1.40
2022-11-04T01:27:14.069Z,1.30
2022-11-04T01:29:40.285Z,1.30
2022-11-04T01:32:06.472Z,1.05
2022-11-04T01:34:32.659Z,1.30
2022-11-04T01:36:58.854Z,1.40
2022-11-04T01:39:25.032Z,0.90
2022-11-04T01:41:51.381Z,1.27
2022-11-04T01:44:36.680Z,1.20
2022-11-04T01:47:03.837Z,1.00
2022-11-04T01:49:39.146Z,0.82
2022-11-04T01:52:10.806Z,0.90
2022-11-04T01:54:37.474Z,1.10
2022-11-04T01:57:06.265Z,1.05
2022-11-04T01:59:36.896Z,1.00
2022-11-04T02:02:03.578Z,0.80
2022-11-04T02:04:30.134Z,0.98
2022-11-04T02:06:57.729Z,1.17
2022-11-04T02:09:25.360Z,1.00
2022-11-04T02:12:10.224Z,1.10
2022-11-04T02:14:36.892Z,1.05
2022-11-04T02:17:20.863Z,1.20
2022-11-04T02:19:55.956Z,1.00
2022-11-04T02:22:28.748Z,1.50
2022-11-04T02:25:03.887Z,1.95
2022-11-04T02:27:30.126Z,1.30
2022-11-04T02:30:10.814Z,1.40
2022-11-04T02:32:55.925Z,1.00
2022-11-04T02:35:25.841Z,1.20
2022-11-04T02:40:35.585Z,1.20
2022-11-04T02:43:24.854Z,1.00
2022-11-04T02:45:53.169Z,1.30
2022-11-04T02:48:35.275Z,1.00
2022-11-04T02:51:04.958Z,1.17
2022-11-04T02:53:38.837Z,1.00
2022-11-04T02:56:05.596Z,1.38
2022-11-04T02:58:42.880Z,1.30
2022-11-04T03:01:11.479Z,1.70
2022-11-04T03:03:40.036Z,1.30
2022-11-04T03:06:08.645Z,1.20
2022-11-04T03:08:38.451Z,1.23
2022-11-04T03:11:09.947Z,1.50
2022-11-04T03:16:04.498Z,1.17
2022-11-04T03:18:30.695Z,2.00
2022-11-04T03:20:57.970Z,1.10
2022-11-04T03:23:24.337Z,1.40
2022-11-04T03:25:52.215Z,1.77
2022-11-04T03:28:27.218Z,1.65
2022-11-04T03:30:55.533Z,1.67
2022-11-04T03:33:24.556Z,1.40
2022-11-04T03:35:51.126Z,1.23
2022-11-04T03:38:17.456Z,1.70
2022-11-04T03:40:43.735Z,1.60
2022-11-04T03:43:25.505Z,2.03
2022-11-04T03:45:51.807Z,1.63
2022-11-04T03:48:18.499Z,1.70
2022-11-04T03:50:47.467Z,1.45
2022-11-04T03:53:15.425Z,1.40
2022-11-04T03:56:00.729Z,1.98
2022-11-04T03:58:39.128Z,2.00
2022-11-04T04:01:28.708Z,1.67
2022-11-04T04:04:00.329Z,1.70
2022-11-04T04:09:22.126Z,1.90
2022-11-04T04:12:09.796Z,1.92
2022-11-04T04:14:39.981Z,1.70
2022-11-04T04:19:36.494Z,2.10
2022-11-04T04:22:09.420Z,1.90
2022-11-04T04:24:55.710Z,1.35
2022-11-04T04:27:32.072Z,1.98
2022-11-04T04:30:00.389Z,1.60
2022-11-04T04:32:27.920Z,2.22
2022-11-04T04:35:17.024Z,2.10
2022-11-04T04:37:44.482Z,1.83
2022-11-04T04:40:31.302Z,1.85
2022-11-04T04:43:16.250Z,2.22
2022-11-04T04:45:47.895Z,2.42
2022-11-04T04:48:14.134Z,1.60
2022-11-04T04:50:42.093Z,1.75
2022-11-04T04:53:08.558Z,1.98
2022-11-04T04:55:40.553Z,1.60
2022-11-04T04:58:08.146Z,1.80
2022-11-04T05:00:34.388Z,2.15
2022-11-04T05:03:00.569Z,1.48
2022-11-04T05:05:26.782Z,1.48
2022-11-04T05:07:53.074Z,2.08
2022-11-04T05:10:19.363Z,1.73
2022-11-04T05:13:04.757Z,1.80
2022-11-04T05:15:31.366Z,1.80
2022-11-04T05:17:59.026Z,1.65
2022-11-04T05:20:25.418Z,2.03
2022-11-04T05:22:51.673Z,1.77
2022-11-04T05:25:18.128Z,1.73
2022-11-04T05:27:44.325Z,1.85
2022-11-04T05:30:10.951Z,1.63
2022-11-04T05:32:37.221Z,1.90
2022-11-04T05:35:03.759Z,2.13
2022-11-04T05:37:29.981Z,2.40
2022-11-04T05:39:56.305Z,1.95
2022-11-04T05:42:22.499Z,2.08
2022-11-04T05:44:48.747Z,2.40
2022-11-04T05:47:15.146Z,2.83
2022-11-04T05:49:41.340Z,2.13
2022-11-04T05:52:07.552Z,2.53
2022-11-04T05:54:33.749Z,2.42
2022-11-04T05:56:59.946Z,2.42
2022-11-04T05:59:26.179Z,2.63
2022-11-04T06:01:52.608Z,2.25
2022-11-04T06:04:19.356Z,2.70
2022-11-04T06:06:45.902Z,2.35
2022-11-04T06:09:12.119Z,2.60
2022-11-04T06:11:38.732Z,2.13
2022-11-04T06:14:04.985Z,2.53
2022-11-04T06:16:31.216Z,2.72
2022-11-04T06:19:01.498Z,2.25
2022-11-04T06:21:32.843Z,2.20
2022-11-04T06:23:59.605Z,2.40
2022-11-04T06:26:28.401Z,2.25
2022-11-04T06:28:54.869Z,2.33
2022-11-04T06:31:21.071Z,3.38
2022-11-04T06:33:47.405Z,2.00
2022-11-04T06:36:14.646Z,2.60
2022-11-04T06:38:40.930Z,2.30
2022-11-04T06:41:08.267Z,2.45
2022-11-04T06:43:34.481Z,2.30
2022-11-04T06:46:01.585Z,2.30
2022-11-04T06:48:29.896Z,2.88
2022-11-04T06:50:57.455Z,2.65
2022-11-04T06:53:23.690Z,2.05
2022-11-04T06:55:51.448Z,2.40
2022-11-04T06:58:17.669Z,2.28
2022-11-04T07:00:44.005Z,2.10
2022-11-04T07:03:10.632Z,2.17
2022-11-04T07:05:37.406Z,2.75
2022-11-04T07:08:03.714Z,2.83
2022-11-04T07:10:29.937Z,2.63
2022-11-04T07:12:56.613Z,2.42
2022-11-04T07:15:27.281Z,2.50
2022-11-04T07:17:53.991Z,2.17
2022-11-04T07:20:20.181Z,2.65
2022-11-04T07:22:46.369Z,2.28
2022-11-04T07:25:12.559Z,2.05
2022-11-04T07:27:39.433Z,1.95
2022-11-04T07:30:06.959Z,2.60
2022-11-04T07:32:33.205Z,2.85
2022-11-04T07:34:59.578Z,2.22
2022-11-04T07:37:25.773Z,2.55
2022-11-04T07:39:52.221Z,2.28
2022-11-04T07:42:18.484Z,2.50
2022-11-04T07:44:44.821Z,2.92
2022-11-04T07:47:11.051Z,2.35
2022-11-04T07:49:37.275Z,2.70
2022-11-04T07:52:03.635Z,2.33
2022-11-04T07:54:30.030Z,2.90
2022-11-04T07:56:56.225Z,2.70
2022-11-04T07:59:22.414Z,2.55
2022-11-04T08:01:48.727Z,2.85
2022-11-04T08:04:15.023Z,9.63
2022-11-04T08:06:41.216Z,3.47
2022-11-04T08:09:07.504Z,4.82
2022-11-04T08:11:34.209Z,3.22
2022-11-04T08:14:02.516Z,2.55
2022-11-04T08:16:33.922Z,2.90
2022-11-04T08:19:02.233Z,3.55
2022-11-04T08:21:29.646Z,6.50
2022-11-04T08:23:56.289Z,5.03
2022-11-04T08:26:23.327Z,5.35
2022-11-04T08:28:50.209Z,5.78
2022-11-04T08:31:19.148Z,6.25
2022-11-04T08:33:45.659Z,6.18
2022-11-04T08:36:22.814Z,4.72
2022-11-04T08:38:49.286Z,3.90
2022-11-04T08:41:16.441Z,5.20
2022-11-04T08:43:42.829Z,6.15
2022-11-04T08:46:10.021Z,4.43
2022-11-04T08:48:36.856Z,3.78
2022-11-04T08:51:04.653Z,3.65
2022-11-04T08:53:30.857Z,3.15
2022-11-04T08:55:57.179Z,3.50
2022-11-04T08:58:23.833Z,2.95
2022-11-04T09:00:50.302Z,2.40
2022-11-04T09:03:16.853Z,2.85
2022-11-04T09:05:48.911Z,2.85
2022-11-04T09:08:16.640Z,2.78
2022-11-04T09:10:44.744Z,2.88
2022-11-04T09:13:11.972Z,3.20
2022-11-04T09:15:38.723Z,2.72
2022-11-04T09:18:05.375Z,2.72
2022-11-04T09:20:31.925Z,2.97
2022-11-04T09:22:58.414Z,2.55
2022-11-04T09:25:24.699Z,3.08
2022-11-04T09:27:50.886Z,2.97
2022-11-04T09:30:17.134Z,2.67
2022-11-04T09:32:44.792Z,2.97
2022-11-04T09:35:12.902Z,2.70
2022-11-04T09:37:39.115Z,3.08
2022-11-04T09:40:05.604Z,2.60
2022-11-04T09:42:43.981Z,2.92
2022-11-04T09:45:21.575Z,2.38
2022-11-04T09:47:49.614Z,2.90
2022-11-04T09:50:22.729Z,2.65
2022-11-04T09:52:53.964Z,2.42
2022-11-04T09:55:32.580Z,2.40
2022-11-04T09:57:59.068Z,2.17
2022-11-04T10:00:25.773Z,2.30
2022-11-04T10:02:52.464Z,2.38
2022-11-04T10:05:44.751Z,2.22
2022-11-04T10:08:22.468Z,2.45
2022-11-04T10:11:00.447Z,2.30
2022-11-04T10:13:50.865Z,2.47
2022-11-04T10:16:40.681Z,2.90
2022-11-04T10:19:13.329Z,2.17
2022-11-04T10:22:01.766Z,2.20
2022-11-04T10:24:40.228Z,3.00
2022-11-04T10:27:14.888Z,2.75
2022-11-04T10:29:42.963Z,3.10
2022-11-04T10:32:22.624Z,2.90
2022-11-04T10:35:07.664Z,3.58
2022-11-04T10:37:34.301Z,2.65
2022-11-04T10:40:09.491Z,2.80
2022-11-04T10:42:35.709Z,3.67
2022-11-04T10:45:01.972Z,4.05
2022-11-04T10:47:46.730Z,3.40
2022-11-04T10:50:28.847Z,4.30
2022-11-04T10:53:10.308Z,3.88
2022-11-04T10:55:42.754Z,3.90
2022-11-04T10:58:14.875Z,3.35
2022-11-04T11:00:41.291Z,3.15
2022-11-04T11:03:27.870Z,3.75
2022-11-04T11:06:09.107Z,3.53
2022-11-04T11:08:37.277Z,3.17
2022-11-04T11:11:04.950Z,3.63
2022-11-04T11:13:36.181Z,2.90
2022-11-04T11:16:08.604Z,2.97
2022-11-04T11:18:37.084Z,3.22
2022-11-04T11:21:05.263Z,2.80
2022-11-04T11:23:33.318Z,3.00
2022-11-04T11:25:59.795Z,2.97
2022-11-04T11:28:26.731Z,3.05
2022-11-04T11:31:00.710Z,3.42
2022-11-04T11:33:30.901Z,3.28
2022-11-04T11:36:12.785Z,2.95
2022-11-04T11:38:51.343Z,2.60
2022-11-04T11:41:25.615Z,2.97
2022-11-04T11:43:53.146Z,2.50
2022-11-04T11:46:26.541Z,2.50
2022-11-04T11:48:54.220Z,2.45
2022-11-04T11:51:29.070Z,1.85
2022-11-04T11:54:18.433Z,1.95
2022-11-04T12:02:51.325Z,1.60
2022-11-04T12:11:23.374Z,1.75
2022-11-04T12:13:52.907Z,2.10
2022-11-04T12:16:31.915Z,1.75
2022-11-04T12:19:09.423Z,1.88
2022-11-04T12:21:39.103Z,1.50
2022-11-04T12:24:10.737Z,1.60
2022-11-04T12:26:42.214Z,1.88
2022-11-04T12:31:42.861Z,1.52
2022-11-04T12:34:28.332Z,2.10
2022-11-04T12:36:57.573Z,2.10
2022-11-04T12:39:23.742Z,1.35
2022-11-04T12:44:50.803Z,1.77
2022-11-04T12:47:28.985Z,1.60
2022-11-04T12:50:14.102Z,1.58
2022-11-04T12:52:46.567Z,1.85
2022-11-04T12:55:31.754Z,1.40
2022-11-04T12:58:13.861Z,1.25
2022-11-04T13:00:42.718Z,1.20
2022-11-04T13:03:12.612Z,1.40
2022-11-04T13:05:48.935Z,1.23
2022-11-04T13:08:15.138Z,1.25
2022-11-04T13:10:56.384Z,1.27
2022-11-04T13:13:42.841Z,1.30
2022-11-04T13:16:11.014Z,1.80
2022-11-04T13:18:39.842Z,1.70
2022-11-04T13:21:15.885Z,1.70
2022-11-04T13:23:46.166Z,1.80
2022-11-04T13:26:16.013Z,1.05
2022-11-04T13:28:44.040Z,1.38
2022-11-04T13:31:14.883Z,1.40
2022-11-04T13:33:41.056Z,1.25
2022-11-04T13:36:07.321Z,1.40
2022-11-04T13:38:39.005Z,1.50
2022-11-04T13:41:23.221Z,1.65
2022-11-04T13:43:54.698Z,1.75
2022-11-04T13:46:20.934Z,1.77
2022-11-04T13:48:59.856Z,1.50
2022-11-04T13:51:46.318Z,2.10
2022-11-04T13:54:32.977Z,1.70
2022-11-04T13:57:14.251Z,1.48
2022-11-04T14:02:19.429Z,1.80
2022-11-04T14:04:46.745Z,1.98
2022-11-04T14:07:16.828Z,1.98
2022-11-04T14:09:44.101Z,2.17
2022-11-04T14:12:10.279Z,2.30
2022-11-04T14:14:40.311Z,2.10
2022-11-04T14:17:29.262Z,2.05
2022-11-04T14:20:04.569Z,1.90
2022-11-04T14:22:42.859Z,1.88
2022-11-04T14:25:29.110Z,1.73
2022-11-04T14:28:00.053Z,1.90
2022-11-04T14:30:31.490Z,2.20
2022-11-04T14:33:06.086Z,1.95
2022-11-04T14:35:32.884Z,1.95
2022-11-04T14:38:05.476Z,2.15
2022-11-04T14:40:49.347Z,2.00
2022-11-04T14:43:29.779Z,2.17
2022-11-04T14:45:56.710Z,2.63
2022-11-04T14:48:23.111Z,2.58
2022-11-04T14:50:50.779Z,2.40
2022-11-04T14:53:21.927Z,2.17
2022-11-04T14:55:48.646Z,1.85
2022-11-04T14:58:24.994Z,2.45
2022-11-04T15:00:53.136Z,2.58
2022-11-04T15:04:08.743Z,2.92
2022-11-04T15:06:09.826Z,2.42
2022-11-04T15:08:42.061Z,2.85
2022-11-04T15:11:12.463Z,3.03
2022-11-04T15:13:46.430Z,2.83
2022-11-04T15:16:18.444Z,2.80
2022-11-04T15:18:44.862Z,3.15
2022-11-04T15:21:11.322Z,2.83
2022-11-04T15:23:40.393Z,3.22
2022-11-04T15:26:06.646Z,3.08
2022-11-04T15:28:37.034Z,3.10
2022-11-04T15:31:03.213Z,3.72
2022-11-04T15:33:30.002Z,3.25
2022-11-04T15:35:57.660Z,3.17
2022-11-04T15:38:25.835Z,3.28
2022-11-04T15:40:52.194Z,3.50
2022-11-04T15:43:18.770Z,2.92
2022-11-04T15:45:51.757Z,3.28
2022-11-04T15:48:24.782Z,3.90
2022-11-04T15:50:59.929Z,3.55
2022-11-04T15:53:26.202Z,3.83
2022-11-04T15:55:52.648Z,3.13
2022-11-04T15:58:19.352Z,3.13
2022-11-04T16:00:53.038Z,3.15
2022-11-04T16:03:20.462Z,3.50
2022-11-04T16:06:00.277Z,3.88
2022-11-04T16:08:30.445Z,3.38
2022-11-04T16:11:15.550Z,4.35
2022-11-04T16:13:41.998Z,3.97
2022-11-04T16:16:14.236Z,3.58
2022-11-04T16:18:58.713Z,3.97
2022-11-04T16:21:30.384Z,4.07
2022-11-04T16:23:59.651Z,4.22
2022-11-04T16:26:27.271Z,3.55
2022-11-04T16:28:55.059Z,3.92
2022-11-04T16:31:21.232Z,3.83
2022-11-04T16:33:47.591Z,3.60
2022-11-04T16:36:23.301Z,3.65
2022-11-04T16:38:56.642Z,4.00
2022-11-04T16:41:23.620Z,3.58
2022-11-04T16:43:50.122Z,4.10
2022-11-04T16:46:16.780Z,3.30
2022-11-04T16:48:43.159Z,4.00
2022-11-04T16:51:13.953Z,3.25
2022-11-04T16:53:40.347Z,3.50
2022-11-04T16:56:06.904Z,4.05
2022-11-04T16:58:33.627Z,3.40
2022-11-04T17:01:05.126Z,4.40
2022-11-04T17:03:31.798Z,4.35
2022-11-04T17:05:58.713Z,4.25
2022-11-04T17:08:25.846Z,5.03
2022-11-04T17:10:52.526Z,5.75
2022-11-04T17:13:18.789Z,5.32
2022-11-04T17:15:45.061Z,4.53
2022-11-04T17:18:16.112Z,4.80
2022-11-04T17:20:44.026Z,5.25
2022-11-04T17:23:12.343Z,5.25
2022-11-04T17:25:38.809Z,4.45
2022-11-04T17:28:05.072Z,5.22
2022-11-04T17:30:31.332Z,4.85
2022-11-04T17:32:57.604Z,4.95
2022-11-04T17:35:23.900Z,4.57
2022-11-04T17:37:53.642Z,5.28
2022-11-04T17:40:20.748Z,5.30
2022-11-04T17:43:11.550Z,5.18
2022-11-04T17:45:38.965Z,5.13
2022-11-04T17:48:05.536Z,5.57
2022-11-04T17:50:32.755Z,5.78
2022-11-04T17:52:59.093Z,5.75
2022-11-04T17:55:27.683Z,5.70
2022-11-04T17:57:54.281Z,5.80
2022-11-04T18:00:24.102Z,5.55
2022-11-04T18:02:50.478Z,5.95
2022-11-04T18:05:16.907Z,5.53
2022-11-04T18:07:43.097Z,6.10
2022-11-04T18:10:09.556Z,6.35
2022-11-04T18:12:39.956Z,6.50
2022-11-04T18:15:08.678Z,6.57
2022-11-04T18:17:38.388Z,6.65
2022-11-04T18:20:08.238Z,7.95
2022-11-04T18:22:38.652Z,6.82
2022-11-04T18:25:05.644Z,6.63
2022-11-04T18:27:31.931Z,7.18
2022-11-04T18:29:58.410Z,7.03
2022-11-04T18:32:24.600Z,7.15
2022-11-04T18:34:51.166Z,6.47
2022-11-04T18:37:17.843Z,6.40
2022-11-04T18:39:44.167Z,6.57
2022-11-04T18:42:10.494Z,6.70
2022-11-04T18:44:36.780Z,5.93
2022-11-04T18:47:03.389Z,6.20
2022-11-04T18:49:29.714Z,7.45
2022-11-04T18:51:56.068Z,7.00
2022-11-04T18:54:22.935Z,7.95
2022-11-04T18:56:49.386Z,9.05
2022-11-04T18:59:15.663Z,8.00
2022-11-04T19:01:42.645Z,9.02
2022-11-04T19:04:09.122Z,9.32
2022-11-04T19:06:38.930Z,9.25
2022-11-04T19:09:25.309Z,9.85
2022-11-04T19:12:12.850Z,8.95
2022-11-04T19:14:39.872Z,10.15
2022-11-04T19:17:06.117Z,9.43
2022-11-04T19:19:32.318Z,9.50
2022-11-04T19:21:58.576Z,9.13
2022-11-04T19:24:25.397Z,10.02
2022-11-04T19:26:51.630Z,10.05
2022-11-04T19:29:17.826Z,10.25
2022-11-04T19:31:44.031Z,10.82
2022-11-04T19:34:10.336Z,10.95
2022-11-04T19:36:37.397Z,10.00
2022-11-04T19:39:04.094Z,11.68
2022-11-04T19:41:49.211Z,11.55
2022-11-04T19:44:16.764Z,12.15
2022-11-04T19:46:43.263Z,11.57
2022-11-04T19:49:09.899Z,12.15
2022-11-04T19:51:37.010Z,12.68
2022-11-04T19:54:03.321Z,12.65
2022-11-04T19:56:31.300Z,13.25
2022-11-04T19:59:00.473Z,12.52
2022-11-04T20:01:31.570Z,13.50
2022-11-04T20:03:57.903Z,12.15
2022-11-04T20:06:24.172Z,12.23
2022-11-04T20:08:51.664Z,13.15
2022-11-04T20:11:20.498Z,13.45
2022-11-04T20:13:47.478Z,13.32
2022-11-04T20:16:15.631Z,12.55
2022-11-04T20:18:42.300Z,14.75
2022-11-04T20:21:08.782Z,14.93
2022-11-04T20:23:35.024Z,15.18
2022-11-04T20:26:30.856Z,14.00
2022-11-04T20:28:58.260Z,16.35
2022-11-04T20:31:26.299Z,16.58
2022-11-04T20:33:53.085Z,16.48
2022-11-04T20:36:20.730Z,17.02
2022-11-04T20:38:47.437Z,17.15
2022-11-04T20:41:18.340Z,17.50
2022-11-04T20:43:45.679Z,17.88
2022-11-04T20:46:13.347Z,17.00
2022-11-04T20:48:39.578Z,17.65
2022-11-04T20:51:09.401Z,17.92
2022-11-04T20:53:35.842Z,16.65
2022-11-04T20:56:06.400Z,17.60
2022-11-04T20:58:36.765Z,18.70
2022-11-04T21:01:04.247Z,16.63
2022-11-04T21:03:30.542Z,18.67
2022-11-04T21:05:56.863Z,19.30
2022-11-04T21:08:23.451Z,18.70
2022-11-04T21:10:50.030Z,18.98
2022-11-04T21:13:16.326Z,20.23
2022-11-04T21:15:42.576Z,18.92
2022-11-04T21:18:09.864Z,18.70
2022-11-04T21:20:39.608Z,19.88
2022-11-04T21:23:06.277Z,19.95
2022-11-04T21:25:38.286Z,20.75
2022-11-04T21:28:04.832Z,19.13
2022-11-04T21:30:33.370Z,18.58
2022-11-04T21:32:59.864Z,18.70
2022-11-04T21:35:26.067Z,19.55
2022-11-04T21:37:52.425Z,19.10
2022-11-04T21:40:18.708Z,19.05
2022-11-04T21:42:44.890Z,17.92
2022-11-04T21:45:11.098Z,17.42
2022-11-04T21:47:37.315Z,18.90
2022-11-04T21:50:04.039Z,17.95
2022-11-04T21:52:30.374Z,18.98
2022-11-04T21:54:56.603Z,18.27
2022-11-04T21:57:22.866Z,16.42
2022-11-04T21:59:49.073Z,17.45
2022-11-04T22:02:15.428Z,18.73
2022-11-04T22:04:42.169Z,16.73
2022-11-04T22:07:08.391Z,16.98
2022-11-04T22:09:34.748Z,17.63
2022-11-04T22:12:01.024Z,16.85
2022-11-04T22:14:28.197Z,16.38
2022-11-04T22:16:54.391Z,16.85
2022-11-04T22:19:20.621Z,15.70
2022-11-04T22:21:46.958Z,16.98
2022-11-04T22:24:14.431Z,16.42
2022-11-04T22:26:41.255Z,15.73
2022-11-04T22:29:08.029Z,15.73
2022-11-04T22:31:36.445Z,15.85
2022-11-04T22:34:03.347Z,15.60
2022-11-04T22:36:30.366Z,15.40
2022-11-04T22:38:57.036Z,16.08
2022-11-04T22:41:30.944Z,16.08
2022-11-04T22:43:57.436Z,15.27
2022-11-04T22:46:26.764Z,15.27
2022-11-04T22:48:53.332Z,16.20
2022-11-04T22:51:19.712Z,15.50
2022-11-04T22:53:48.951Z,14.82
2022-11-04T22:56:17.537Z,14.38
2022-11-04T22:58:43.912Z,14.20
2022-11-04T23:01:11.728Z,14.40
2022-11-04T23:03:39.157Z,13.63
2022-11-04T23:06:05.785Z,13.70
2022-11-04T23:08:32.740Z,13.32
2022-11-04T23:11:22.776Z,13.27
2022-11-04T23:14:17.132Z,13.15
2022-11-04T23:17:05.773Z,12.63
2022-11-04T23:19:32.005Z,12.88
2022-11-04T23:22:17.022Z,12.05
2022-11-04T23:25:02.117Z,11.85
2022-11-04T23:27:46.803Z,11.82
2022-11-04T23:30:22.626Z,13.18
2022-11-04T23:32:49.134Z,13.30
2022-11-04T23:35:34.096Z,14.73
2022-11-04T23:38:00.562Z,15.05
2022-11-04T23:40:27.512Z,16.02
2022-11-04T23:42:53.962Z,16.25
2022-11-04T23:45:39.267Z,15.65
2022-11-04T23:48:24.652Z,14.93
2022-11-04T23:51:13.545Z,15.13
2022-11-04T23:53:58.585Z,14.10
2022-11-04T23:56:43.846Z,15.02
2022-11-04T23:59:30.053Z,15.00
